Terminal Aerodrome Forecast
Issued by NWS Wichita, KS

Home | Current Version | Previous Version | Text Only | Print | Product List | Glossary Off
Versions: 1 2 3 4 5 6 7 8 9 10 11 12 13

000
FTUS43 KICT 220500
TAFICT
TAF
KICT 220522Z 2206/2306 17013KT P6SM SCT130
     FM221600 19016G23KT P6SM FEW060 BKN130
     FM230100 18011KT P6SM SCT130=

USA.gov is the U.S. government's official web portal to all federal, state and local government web resources and services.